Terminal Aerodrome Forecast
Issued by NWS

Home | Current Version | Previous Version | Text Only | Print | Product List | Glossary On
Versions: 1 2 3 4 5 6 7 8 9 10 11 12 13 14 15 16 17 18 19 20 21 22 23 24 25 26 27 28 29 30 31 32 33 34 35 36
000
FTUS44 KOUN 032342
TAFPNC
TAF
KPNC 032342Z 0400/0424 36010KT P6SM OVC060
      TEMPO 0400/0403 -SHRA
     FM040300 02017G26KT 4SM BR OVC009
      TEMPO 0406/0410 2SM -PL BR OVC007
     FM041000 01020G26KT 2SM -SNPL BR OVC006
     FM041200 02015KT 1SM -SN OVC004=

USA.gov is the U.S. government's official web portal to all federal, state and local government web resources and services.